sensor_id;sensor_type;location;lat;lon;timestamp;P1;durP1;ratioP1;P2;durP2;ratioP2
59161;SDS011;44942;48.936;8.260;2023-10-09T00:04:41;15.73;;;5.22;;
59161;SDS011;44942;48.936;8.260;2023-10-09T00:09:45;20.48;;;6.43;;
59161;SDS011;44942;48.936;8.260;2023-10-09T00:14:48;17.20;;;5.80;;
59161;SDS011;44942;48.936;8.260;2023-10-09T00:19:55;18.17;;;6.28;;
59161;SDS011;44942;48.936;8.260;2023-10-09T00:24:59;23.48;;;7.15;;
59161;SDS011;44942;48.936;8.260;2023-10-09T00:30:13;18.50;;;5.53;;
59161;SDS011;44942;48.936;8.260;2023-10-09T00:35:29;18.85;;;5.88;;
59161;SDS011;44942;48.936;8.260;2023-10-09T00:40:36;18.85;;;6.18;;
59161;SDS011;44942;48.936;8.260;2023-10-09T00:45:45;17.10;;;6.10;;
59161;SDS011;44942;48.936;8.260;2023-10-09T00:50:47;14.75;;;6.03;;
59161;SDS011;44942;48.936;8.260;2023-10-09T00:55:52;20.52;;;6.63;;
59161;SDS011;44942;48.936;8.260;2023-10-09T01:00:56;19.20;;;6.10;;
59161;SDS011;44942;48.936;8.260;2023-10-09T01:06:00;16.60;;;6.15;;
59161;SDS011;44942;48.936;8.260;2023-10-09T01:16:22;16.38;;;6.45;;
59161;SDS011;44942;48.936;8.260;2023-10-09T01:21:23;17.85;;;6.72;;
59161;SDS011;44942;48.936;8.260;2023-10-09T01:26:26;14.13;;;5.68;;
59161;SDS011;44942;48.936;8.260;2023-10-09T01:31:26;18.57;;;6.13;;
59161;SDS011;44942;48.936;8.260;2023-10-09T01:36:33;19.10;;;6.35;;
59161;SDS011;44942;48.936;8.260;2023-10-09T01:41:34;17.90;;;5.90;;
59161;SDS011;44942;48.936;8.260;2023-10-09T01:46:37;18.60;;;5.97;;
59161;SDS011;44942;48.936;8.260;2023-10-09T01:51:38;19.90;;;6.93;;
59161;SDS011;44942;48.936;8.260;2023-10-09T01:56:39;16.33;;;6.33;;
59161;SDS011;44942;48.936;8.260;2023-10-09T02:01:46;16.73;;;6.78;;
59161;SDS011;44942;48.936;8.260;2023-10-09T02:06:47;11.95;;;5.78;;
59161;SDS011;44942;48.936;8.260;2023-10-09T02:11:52;16.17;;;5.90;;
59161;SDS011;44942;48.936;8.260;2023-10-09T02:16:53;15.80;;;6.13;;
59161;SDS011;44942;48.936;8.260;2023-10-09T02:22:03;16.50;;;6.30;;
59161;SDS011;44942;48.936;8.260;2023-10-09T02:27:12;16.38;;;5.90;;
59161;SDS011;44942;48.936;8.260;2023-10-09T02:32:15;16.73;;;6.32;;
59161;SDS011;44942;48.936;8.260;2023-10-09T02:37:26;14.20;;;5.80;;
59161;SDS011;44942;48.936;8.260;2023-10-09T02:42:27;21.13;;;6.28;;
59161;SDS011;44942;48.936;8.260;2023-10-09T02:47:28;12.30;;;5.65;;
59161;SDS011;44942;48.936;8.260;2023-10-09T02:52:37;15.80;;;5.88;;
59161;SDS011;44942;48.936;8.260;2023-10-09T02:57:41;17.15;;;6.38;;
59161;SDS011;44942;48.936;8.260;2023-10-09T03:02:43;18.15;;;6.22;;
59161;SDS011;44942;48.936;8.260;2023-10-09T03:07:49;16.40;;;5.75;;
59161;SDS011;44942;48.936;8.260;2023-10-09T03:12:52;17.60;;;5.72;;
59161;SDS011;44942;48.936;8.260;2023-10-09T03:17:56;15.50;;;5.70;;
59161;SDS011;44942;48.936;8.260;2023-10-09T03:22:56;18.93;;;6.10;;
59161;SDS011;44942;48.936;8.260;2023-10-09T03:27:58;14.60;;;6.10;;
59161;SDS011;44942;48.936;8.260;2023-10-09T03:38:00;20.73;;;6.38;;
59161;SDS011;44942;48.936;8.260;2023-10-09T03:43:13;18.48;;;6.25;;
59161;SDS011;44942;48.936;8.260;2023-10-09T03:53:21;17.13;;;6.20;;
59161;SDS011;44942;48.936;8.260;2023-10-09T03:58:21;17.30;;;6.50;;
59161;SDS011;44942;48.936;8.260;2023-10-09T04:03:22;18.90;;;6.70;;
59161;SDS011;44942;48.936;8.260;2023-10-09T04:08:24;16.83;;;6.45;;
59161;SDS011;44942;48.936;8.260;2023-10-09T04:13:31;13.00;;;6.20;;
59161;SDS011;44942;48.936;8.260;2023-10-09T04:18:35;17.95;;;6.32;;
59161;SDS011;44942;48.936;8.260;2023-10-09T04:23:38;18.45;;;6.38;;
59161;SDS011;44942;48.936;8.260;2023-10-09T04:28:57;14.40;;;6.65;;
59161;SDS011;44942;48.936;8.260;2023-10-09T04:33:58;19.63;;;6.87;;
59161;SDS011;44942;48.936;8.260;2023-10-09T04:39:17;19.75;;;6.60;;
59161;SDS011;44942;48.936;8.260;2023-10-09T04:44:30;23.23;;;6.68;;
59161;SDS011;44942;48.936;8.260;2023-10-09T04:49:36;22.90;;;6.68;;
59161;SDS011;44942;48.936;8.260;2023-10-09T04:54:56;18.38;;;6.00;;
59161;SDS011;44942;48.936;8.260;2023-10-09T05:00:07;16.03;;;5.67;;
59161;SDS011;44942;48.936;8.260;2023-10-09T05:05:28;20.25;;;6.53;;
59161;SDS011;44942;48.936;8.260;2023-10-09T05:10:41;20.85;;;7.32;;
59161;SDS011;44942;48.936;8.260;2023-10-09T05:16:00;17.13;;;5.90;;
59161;SDS011;44942;48.936;8.260;2023-10-09T05:21:03;18.25;;;5.90;;
59161;SDS011;44942;48.936;8.260;2023-10-09T05:26:27;18.52;;;6.10;;
59161;SDS011;44942;48.936;8.260;2023-10-09T05:31:46;15.13;;;6.00;;
59161;SDS011;44942;48.936;8.260;2023-10-09T05:36:56;16.15;;;6.00;;
59161;SDS011;44942;48.936;8.260;2023-10-09T05:42:11;15.05;;;5.97;;
59161;SDS011;44942;48.936;8.260;2023-10-09T05:47:18;30.10;;;7.00;;
59161;SDS011;44942;48.936;8.260;2023-10-09T05:52:27;23.60;;;6.57;;
59161;SDS011;44942;48.936;8.260;2023-10-09T05:57:38;15.27;;;5.95;;
59161;SDS011;44942;48.936;8.260;2023-10-09T06:02:57;18.70;;;6.30;;
59161;SDS011;44942;48.936;8.260;2023-10-09T06:08:19;14.20;;;5.47;;
59161;SDS011;44942;48.936;8.260;2023-10-09T06:13:40;15.05;;;5.15;;
59161;SDS011;44942;48.936;8.260;2023-10-09T06:18:46;16.33;;;6.07;;
59161;SDS011;44942;48.936;8.260;2023-10-09T06:24:07;17.75;;;6.15;;
59161;SDS011;44942;48.936;8.260;2023-10-09T06:29:18;20.10;;;5.90;;
59161;SDS011;44942;48.936;8.260;2023-10-09T06:34:35;18.75;;;6.38;;
59161;SDS011;44942;48.936;8.260;2023-10-09T06:39:35;18.93;;;5.60;;
59161;SDS011;44942;48.936;8.260;2023-10-09T06:44:55;19.70;;;5.60;;
59161;SDS011;44942;48.936;8.260;2023-10-09T06:49:55;16.70;;;5.28;;
59161;SDS011;44942;48.936;8.260;2023-10-09T06:55:15;14.68;;;5.60;;
59161;SDS011;44942;48.936;8.260;2023-10-09T07:00:32;14.60;;;5.63;;
59161;SDS011;44942;48.936;8.260;2023-10-09T07:06:05;13.55;;;5.30;;
59161;SDS011;44942;48.936;8.260;2023-10-09T07:11:25;15.85;;;5.70;;
59161;SDS011;44942;48.936;8.260;2023-10-09T07:16:40;14.07;;;5.57;;
59161;SDS011;44942;48.936;8.260;2023-10-09T07:21:57;22.30;;;7.35;;
59161;SDS011;44942;48.936;8.260;2023-10-09T07:27:03;20.48;;;5.88;;
59161;SDS011;44942;48.936;8.260;2023-10-09T07:32:19;19.75;;;5.70;;
59161;SDS011;44942;48.936;8.260;2023-10-09T07:37:28;16.55;;;5.68;;
59161;SDS011;44942;48.936;8.260;2023-10-09T07:42:34;14.15;;;5.43;;
59161;SDS011;44942;48.936;8.260;2023-10-09T07:47:41;15.90;;;5.72;;
59161;SDS011;44942;48.936;8.260;2023-10-09T07:52:59;11.80;;;5.53;;
59161;SDS011;44942;48.936;8.260;2023-10-09T07:58:14;18.38;;;5.45;;
59161;SDS011;44942;48.936;8.260;2023-10-09T08:08:24;14.02;;;5.10;;
59161;SDS011;44942;48.936;8.260;2023-10-09T08:13:33;14.10;;;5.30;;
59161;SDS011;44942;48.936;8.260;2023-10-09T08:18:49;14.20;;;4.97;;
59161;SDS011;44942;48.936;8.260;2023-10-09T08:23:53;19.75;;;5.32;;
59161;SDS011;44942;48.936;8.260;2023-10-09T08:28:54;15.95;;;5.32;;
59161;SDS011;44942;48.936;8.260;2023-10-09T08:34:15;15.50;;;5.20;;
59161;SDS011;44942;48.936;8.260;2023-10-09T08:39:25;12.90;;;4.60;;
59161;SDS011;44942;48.936;8.260;2023-10-09T08:44:26;17.98;;;5.30;;
59161;SDS011;44942;48.936;8.260;2023-10-09T08:49:29;15.23;;;5.18;;
59161;SDS011;44942;48.936;8.260;2023-10-09T08:54:33;16.77;;;5.25;;
59161;SDS011;44942;48.936;8.260;2023-10-09T08:59:33;14.17;;;4.87;;
59161;SDS011;44942;48.936;8.260;2023-10-09T09:04:42;16.45;;;4.80;;
59161;SDS011;44942;48.936;8.260;2023-10-09T09:09:54;13.98;;;5.05;;
59161;SDS011;44942;48.936;8.260;2023-10-09T09:15:01;11.30;;;4.60;;
59161;SDS011;44942;48.936;8.260;2023-10-09T09:20:18;13.18;;;4.90;;
59161;SDS011;44942;48.936;8.260;2023-10-09T09:25:23;16.50;;;4.85;;
59161;SDS011;44942;48.936;8.260;2023-10-09T09:30:28;15.80;;;5.32;;
59161;SDS011;44942;48.936;8.260;2023-10-09T09:35:33;16.48;;;4.88;;
59161;SDS011;44942;48.936;8.260;2023-10-09T09:40:33;15.53;;;4.40;;
59161;SDS011;44942;48.936;8.260;2023-10-09T09:45:41;17.10;;;4.65;;
59161;SDS011;44942;48.936;8.260;2023-10-09T09:50:48;15.35;;;5.13;;
59161;SDS011;44942;48.936;8.260;2023-10-09T09:55:54;16.42;;;4.70;;
59161;SDS011;44942;48.936;8.260;2023-10-09T10:01:06;14.55;;;4.90;;
59161;SDS011;44942;48.936;8.260;2023-10-09T10:06:25;12.80;;;4.78;;
59161;SDS011;44942;48.936;8.260;2023-10-09T10:17:04;16.90;;;4.65;;
59161;SDS011;44942;48.936;8.260;2023-10-09T10:22:24;12.25;;;4.63;;
59161;SDS011;44942;48.936;8.260;2023-10-09T10:27:30;14.00;;;4.85;;
59161;SDS011;44942;48.936;8.260;2023-10-09T10:37:51;15.07;;;4.50;;
59161;SDS011;44942;48.936;8.260;2023-10-09T10:43:00;14.65;;;4.75;;
59161;SDS011;44942;48.936;8.260;2023-10-09T10:48:13;13.80;;;5.13;;
59161;SDS011;44942;48.936;8.260;2023-10-09T10:53:37;13.82;;;3.95;;
59161;SDS011;44942;48.936;8.260;2023-10-09T10:58:53;15.07;;;4.32;;
59161;SDS011;44942;48.936;8.260;2023-10-09T11:04:11;14.73;;;4.10;;
59161;SDS011;44942;48.936;8.260;2023-10-09T11:09:12;12.02;;;4.25;;
59161;SDS011;44942;48.936;8.260;2023-10-09T11:14:22;15.48;;;4.38;;
59161;SDS011;44942;48.936;8.260;2023-10-09T11:19:25;15.75;;;4.10;;
59161;SDS011;44942;48.936;8.260;2023-10-09T11:24:31;17.92;;;4.65;;
59161;SDS011;44942;48.936;8.260;2023-10-09T11:29:36;16.58;;;4.70;;
59161;SDS011;44942;48.936;8.260;2023-10-09T11:34:48;14.57;;;4.25;;
59161;SDS011;44942;48.936;8.260;2023-10-09T11:39:52;11.68;;;3.83;;
59161;SDS011;44942;48.936;8.260;2023-10-09T11:44:53;10.73;;;4.10;;
59161;SDS011;44942;48.936;8.260;2023-10-09T11:49:55;10.82;;;3.85;;
59161;SDS011;44942;48.936;8.260;2023-10-09T11:55:17;10.85;;;3.60;;
59161;SDS011;44942;48.936;8.260;2023-10-09T12:00:17;10.80;;;4.17;;
59161;SDS011;44942;48.936;8.260;2023-10-09T12:05:31;14.38;;;3.90;;
59161;SDS011;44942;48.936;8.260;2023-10-09T12:10:34;16.35;;;4.65;;
59161;SDS011;44942;48.936;8.260;2023-10-09T12:15:38;12.18;;;3.92;;
59161;SDS011;44942;48.936;8.260;2023-10-09T12:20:38;12.27;;;4.07;;
59161;SDS011;44942;48.936;8.260;2023-10-09T12:25:39;19.85;;;4.60;;
59161;SDS011;44942;48.936;8.260;2023-10-09T12:30:40;10.35;;;3.97;;
59161;SDS011;44942;48.936;8.260;2023-10-09T12:35:41;13.05;;;4.07;;
59161;SDS011;44942;48.936;8.260;2023-10-09T12:40:45;11.50;;;3.90;;
59161;SDS011;44942;48.936;8.260;2023-10-09T12:45:52;11.57;;;4.03;;
59161;SDS011;44942;48.936;8.260;2023-10-09T12:50:57;16.95;;;4.05;;
59161;SDS011;44942;48.936;8.260;2023-10-09T12:55:57;15.20;;;4.00;;
59161;SDS011;44942;48.936;8.260;2023-10-09T13:00:58;14.33;;;4.27;;
59161;SDS011;44942;48.936;8.260;2023-10-09T13:06:09;13.48;;;4.35;;
59161;SDS011;44942;48.936;8.260;2023-10-09T13:11:13;17.75;;;3.95;;
59161;SDS011;44942;48.936;8.260;2023-10-09T13:16:20;14.98;;;4.45;;
59161;SDS011;44942;48.936;8.260;2023-10-09T13:21:27;12.55;;;3.95;;
59161;SDS011;44942;48.936;8.260;2023-10-09T13:26:31;16.13;;;4.25;;
59161;SDS011;44942;48.936;8.260;2023-10-09T13:31:35;15.77;;;4.13;;
59161;SDS011;44942;48.936;8.260;2023-10-09T13:36:37;16.13;;;4.38;;
59161;SDS011;44942;48.936;8.260;2023-10-09T13:41:38;16.57;;;4.40;;
59161;SDS011;44942;48.936;8.260;2023-10-09T13:46:42;16.10;;;4.50;;
59161;SDS011;44942;48.936;8.260;2023-10-09T13:51:43;20.23;;;5.15;;
59161;SDS011;44942;48.936;8.260;2023-10-09T13:56:44;18.35;;;4.32;;
59161;SDS011;44942;48.936;8.260;2023-10-09T14:01:45;23.00;;;4.60;;
59161;SDS011;44942;48.936;8.260;2023-10-09T14:06:47;15.95;;;4.70;;
59161;SDS011;44942;48.936;8.260;2023-10-09T14:16:52;16.98;;;4.35;;
59161;SDS011;44942;48.936;8.260;2023-10-09T14:21:57;19.27;;;4.90;;
59161;SDS011;44942;48.936;8.260;2023-10-09T14:26:57;14.57;;;4.50;;
59161;SDS011;44942;48.936;8.260;2023-10-09T14:31:59;13.80;;;4.32;;
59161;SDS011;44942;48.936;8.260;2023-10-09T14:37:00;13.32;;;4.38;;
59161;SDS011;44942;48.936;8.260;2023-10-09T14:42:00;17.43;;;4.47;;
59161;SDS011;44942;48.936;8.260;2023-10-09T14:47:09;16.55;;;4.10;;
59161;SDS011;44942;48.936;8.260;2023-10-09T14:52:10;14.90;;;4.80;;
59161;SDS011;44942;48.936;8.260;2023-10-09T14:57:11;16.25;;;4.50;;
59161;SDS011;44942;48.936;8.260;2023-10-09T15:02:15;16.90;;;4.53;;
59161;SDS011;44942;48.936;8.260;2023-10-09T15:07:17;25.38;;;5.05;;
59161;SDS011;44942;48.936;8.260;2023-10-09T15:12:17;19.90;;;4.68;;
59161;SDS011;44942;48.936;8.260;2023-10-09T15:17:18;20.30;;;4.93;;
59161;SDS011;44942;48.936;8.260;2023-10-09T15:22:18;19.37;;;4.77;;
59161;SDS011;44942;48.936;8.260;2023-10-09T15:27:21;19.65;;;5.30;;
59161;SDS011;44942;48.936;8.260;2023-10-09T15:32:21;25.57;;;5.43;;
59161;SDS011;44942;48.936;8.260;2023-10-09T15:37:23;18.23;;;4.97;;
59161;SDS011;44942;48.936;8.260;2023-10-09T15:42:24;21.60;;;5.30;;
59161;SDS011;44942;48.936;8.260;2023-10-09T15:47:25;20.80;;;5.18;;
59161;SDS011;44942;48.936;8.260;2023-10-09T15:52:26;19.77;;;5.32;;
59161;SDS011;44942;48.936;8.260;2023-10-09T16:02:28;21.87;;;5.40;;
59161;SDS011;44942;48.936;8.260;2023-10-09T16:07:29;21.05;;;5.05;;
59161;SDS011;44942;48.936;8.260;2023-10-09T16:12:30;20.77;;;5.25;;
59161;SDS011;44942;48.936;8.260;2023-10-09T16:22:34;21.30;;;5.40;;
59161;SDS011;44942;48.936;8.260;2023-10-09T16:27:35;27.47;;;5.17;;
59161;SDS011;44942;48.936;8.260;2023-10-09T16:32:36;24.40;;;5.65;;
59161;SDS011;44942;48.936;8.260;2023-10-09T16:37:38;20.90;;;5.20;;
59161;SDS011;44942;48.936;8.260;2023-10-09T16:42:39;16.17;;;5.13;;
59161;SDS011;44942;48.936;8.260;2023-10-09T16:47:45;17.65;;;4.70;;
59161;SDS011;44942;48.936;8.260;2023-10-09T16:52:47;19.42;;;4.93;;
59161;SDS011;44942;48.936;8.260;2023-10-09T16:57:47;16.63;;;4.47;;
59161;SDS011;44942;48.936;8.260;2023-10-09T17:02:48;15.93;;;4.57;;
59161;SDS011;44942;48.936;8.260;2023-10-09T17:07:48;13.30;;;4.03;;
59161;SDS011;44942;48.936;8.260;2023-10-09T17:12:49;24.03;;;4.50;;
59161;SDS011;44942;48.936;8.260;2023-10-09T17:17:52;24.33;;;4.82;;
59161;SDS011;44942;48.936;8.260;2023-10-09T17:22:53;20.77;;;4.90;;
59161;SDS011;44942;48.936;8.260;2023-10-09T17:27:58;16.90;;;4.85;;
59161;SDS011;44942;48.936;8.260;2023-10-09T17:32:59;19.92;;;4.70;;
59161;SDS011;44942;48.936;8.260;2023-10-09T17:38:00;14.57;;;4.87;;
59161;SDS011;44942;48.936;8.260;2023-10-09T17:43:00;26.73;;;10.13;;
59161;SDS011;44942;48.936;8.260;2023-10-09T17:48:03;32.85;;;14.75;;
59161;SDS011;44942;48.936;8.260;2023-10-09T17:53:08;23.23;;;9.50;;
59161;SDS011;44942;48.936;8.260;2023-10-09T17:58:08;22.05;;;6.90;;
59161;SDS011;44942;48.936;8.260;2023-10-09T18:03:11;18.52;;;5.97;;
59161;SDS011;44942;48.936;8.260;2023-10-09T18:08:15;16.67;;;5.75;;
59161;SDS011;44942;48.936;8.260;2023-10-09T18:13:16;16.83;;;5.83;;
59161;SDS011;44942;48.936;8.260;2023-10-09T18:18:19;15.18;;;5.68;;
59161;SDS011;44942;48.936;8.260;2023-10-09T18:23:20;15.80;;;5.97;;
59161;SDS011;44942;48.936;8.260;2023-10-09T18:28:20;16.53;;;5.70;;
59161;SDS011;44942;48.936;8.260;2023-10-09T18:33:21;19.87;;;5.70;;
59161;SDS011;44942;48.936;8.260;2023-10-09T18:38:23;19.58;;;6.68;;
59161;SDS011;44942;48.936;8.260;2023-10-09T18:43:23;17.90;;;6.50;;
59161;SDS011;44942;48.936;8.260;2023-10-09T18:48:27;21.77;;;6.00;;
59161;SDS011;44942;48.936;8.260;2023-10-09T18:53:29;17.70;;;5.80;;
59161;SDS011;44942;48.936;8.260;2023-10-09T18:58:32;21.27;;;6.03;;
59161;SDS011;44942;48.936;8.260;2023-10-09T19:03:32;18.15;;;5.32;;
59161;SDS011;44942;48.936;8.260;2023-10-09T19:08:33;37.85;;;6.47;;
59161;SDS011;44942;48.936;8.260;2023-10-09T19:13:35;24.55;;;6.28;;
59161;SDS011;44942;48.936;8.260;2023-10-09T19:18:39;19.02;;;6.05;;
59161;SDS011;44942;48.936;8.260;2023-10-09T19:23:40;21.80;;;7.87;;
59161;SDS011;44942;48.936;8.260;2023-10-09T19:28:44;23.02;;;6.43;;
59161;SDS011;44942;48.936;8.260;2023-10-09T19:33:47;14.35;;;5.70;;
59161;SDS011;44942;48.936;8.260;2023-10-09T19:38:49;17.38;;;6.05;;
59161;SDS011;44942;48.936;8.260;2023-10-09T19:43:53;19.15;;;6.57;;
59161;SDS011;44942;48.936;8.260;2023-10-09T19:48:53;17.40;;;5.80;;
59161;SDS011;44942;48.936;8.260;2023-10-09T19:53:55;14.80;;;6.03;;
59161;SDS011;44942;48.936;8.260;2023-10-09T19:58:55;18.55;;;6.65;;
59161;SDS011;44942;48.936;8.260;2023-10-09T20:03:57;20.45;;;6.53;;
59161;SDS011;44942;48.936;8.260;2023-10-09T20:08:58;20.92;;;6.25;;
59161;SDS011;44942;48.936;8.260;2023-10-09T20:13:59;18.92;;;6.28;;
59161;SDS011;44942;48.936;8.260;2023-10-09T20:19:00;19.35;;;7.05;;
59161;SDS011;44942;48.936;8.260;2023-10-09T20:24:02;13.83;;;6.17;;
59161;SDS011;44942;48.936;8.260;2023-10-09T20:34:04;18.85;;;6.88;;
59161;SDS011;44942;48.936;8.260;2023-10-09T20:39:09;19.27;;;7.85;;
59161;SDS011;44942;48.936;8.260;2023-10-09T20:44:11;22.00;;;7.93;;
59161;SDS011;44942;48.936;8.260;2023-10-09T20:49:14;23.52;;;8.48;;
59161;SDS011;44942;48.936;8.260;2023-10-09T20:54:16;24.58;;;8.65;;
59161;SDS011;44942;48.936;8.260;2023-10-09T20:59:16;21.37;;;8.83;;
59161;SDS011;44942;48.936;8.260;2023-10-09T21:04:17;28.07;;;10.10;;
59161;SDS011;44942;48.936;8.260;2023-10-09T21:09:17;29.77;;;11.57;;
59161;SDS011;44942;48.936;8.260;2023-10-09T21:14:18;27.93;;;11.17;;
59161;SDS011;44942;48.936;8.260;2023-10-09T21:19:18;24.83;;;11.13;;
59161;SDS011;44942;48.936;8.260;2023-10-09T21:24:19;24.97;;;9.07;;
59161;SDS011;44942;48.936;8.260;2023-10-09T21:29:20;20.75;;;7.75;;
59161;SDS011;44942;48.936;8.260;2023-10-09T21:34:21;23.52;;;8.07;;
59161;SDS011;44942;48.936;8.260;2023-10-09T21:44:23;25.10;;;7.70;;
59161;SDS011;44942;48.936;8.260;2023-10-09T21:54:25;22.50;;;7.10;;
59161;SDS011;44942;48.936;8.260;2023-10-09T21:59:28;14.63;;;6.25;;
59161;SDS011;44942;48.936;8.260;2023-10-09T22:04:30;19.90;;;5.93;;
59161;SDS011;44942;48.936;8.260;2023-10-09T22:09:30;14.03;;;6.20;;
59161;SDS011;44942;48.936;8.260;2023-10-09T22:14:31;15.43;;;6.10;;
59161;SDS011;44942;48.936;8.260;2023-10-09T22:19:31;15.73;;;6.37;;
59161;SDS011;44942;48.936;8.260;2023-10-09T22:24:36;15.82;;;6.18;;
59161;SDS011;44942;48.936;8.260;2023-10-09T22:29:48;15.18;;;5.90;;
59161;SDS011;44942;48.936;8.260;2023-10-09T22:34:54;16.48;;;5.78;;
59161;SDS011;44942;48.936;8.260;2023-10-09T22:40:00;13.98;;;5.85;;
59161;SDS011;44942;48.936;8.260;2023-10-09T22:45:04;18.45;;;5.82;;
59161;SDS011;44942;48.936;8.260;2023-10-09T22:50:07;14.18;;;5.93;;
59161;SDS011;44942;48.936;8.260;2023-10-09T22:55:17;19.08;;;6.10;;
59161;SDS011;44942;48.936;8.260;2023-10-09T23:00:19;16.10;;;6.07;;
59161;SDS011;44942;48.936;8.260;2023-10-09T23:05:48;12.32;;;5.57;;
59161;SDS011;44942;48.936;8.260;2023-10-09T23:10:56;16.83;;;5.60;;
59161;SDS011;44942;48.936;8.260;2023-10-09T23:16:08;13.85;;;6.22;;
59161;SDS011;44942;48.936;8.260;2023-10-09T23:21:14;16.10;;;5.70;;
59161;SDS011;44942;48.936;8.260;2023-10-09T23:26:20;11.57;;;5.40;;
59161;SDS011;44942;48.936;8.260;2023-10-09T23:31:34;14.32;;;5.57;;
59161;SDS011;44942;48.936;8.260;2023-10-09T23:36:35;13.27;;;5.00;;
59161;SDS011;44942;48.936;8.260;2023-10-09T23:41:43;17.83;;;5.65;;
59161;SDS011;44942;48.936;8.260;2023-10-09T23:46:58;15.55;;;5.38;;
59161;SDS011;44942;48.936;8.260;2023-10-09T23:51:59;13.18;;;5.10;;
59161;SDS011;44942;48.936;8.260;2023-10-09T23:57:00;9.53;;;4.90;;
